createdAt,value
2023-02-16T00:01:16.600Z,28.95
2023-02-16T00:03:45.369Z,30.58
2023-02-16T00:06:16.066Z,29.60
2023-02-16T00:08:45.779Z,29.05
2023-02-16T00:11:36.594Z,29.48
2023-02-16T00:14:07.311Z,30.13
2023-02-16T00:16:40.704Z,29.38
2023-02-16T00:19:23.692Z,29.85
2023-02-16T00:21:53.018Z,30.23
2023-02-16T00:24:21.416Z,29.95
2023-02-16T00:26:50.111Z,30.95
2023-02-16T00:29:21.817Z,27.83
2023-02-16T00:31:50.449Z,30.00
2023-02-16T00:34:27.062Z,29.90
2023-02-16T00:36:55.802Z,31.73
2023-02-16T00:39:25.201Z,29.80
2023-02-16T00:41:54.781Z,30.10
2023-02-16T00:44:28.907Z,29.02
2023-02-16T00:46:57.313Z,31.13
2023-02-16T00:49:30.108Z,31.20
2023-02-16T00:52:01.235Z,29.55
2023-02-16T00:54:31.675Z,30.17
2023-02-16T00:57:00.650Z,29.88
2023-02-16T00:59:30.349Z,30.67
2023-02-16T01:02:05.629Z,31.33
2023-02-16T01:04:34.096Z,30.60
2023-02-16T01:07:22.113Z,30.20
2023-02-16T01:10:11.219Z,29.48
2023-02-16T01:12:46.544Z,30.17
2023-02-16T01:15:24.562Z,30.73
2023-02-16T01:17:53.576Z,30.08
2023-02-16T01:20:27.091Z,31.08
2023-02-16T01:22:55.386Z,29.08
2023-02-16T01:25:23.855Z,30.27
2023-02-16T01:27:54.871Z,30.63
2023-02-16T01:30:25.932Z,31.80
2023-02-16T01:32:59.003Z,29.27
2023-02-16T01:35:32.824Z,29.48
2023-02-16T01:38:01.625Z,29.42
2023-02-16T01:40:36.195Z,30.00
2023-02-16T01:43:06.076Z,29.63
2023-02-16T01:45:36.956Z,29.23
2023-02-16T01:48:08.875Z,29.75
2023-02-16T01:50:42.900Z,30.05
2023-02-16T01:53:17.714Z,29.73
2023-02-16T01:55:48.893Z,29.08
2023-02-16T01:58:22.370Z,29.92
2023-02-16T02:01:09.390Z,27.73
2023-02-16T02:03:59.280Z,32.03
2023-02-16T02:06:30.738Z,31.63
2023-02-16T02:09:02.980Z,30.73
2023-02-16T02:11:41.384Z,31.17
2023-02-16T02:14:11.220Z,26.33
2023-02-16T02:16:39.496Z,28.48
2023-02-16T02:19:11.536Z,27.83
2023-02-16T02:22:12.512Z,28.10
2023-02-16T02:24:52.928Z,29.15
2023-02-16T02:27:26.924Z,29.67
2023-02-16T02:30:20.998Z,30.30
2023-02-16T02:33:14.756Z,29.10
2023-02-16T02:35:49.989Z,27.38
2023-02-16T02:38:23.654Z,28.98
2023-02-16T02:40:56.757Z,27.55
2023-02-16T02:43:29.690Z,27.35
2023-02-16T02:46:01.347Z,29.13
2023-02-16T02:48:31.758Z,27.75
2023-02-16T02:51:26.114Z,28.65
2023-02-16T02:54:23.375Z,29.65
2023-02-16T02:57:17.767Z,27.42
2023-02-16T03:00:09.902Z,29.42
2023-02-16T03:02:38.639Z,30.08
2023-02-16T03:05:08.610Z,26.60
2023-02-16T03:07:50.316Z,28.70
2023-02-16T03:10:37.401Z,27.50
2023-02-16T03:13:07.811Z,27.23
2023-02-16T03:15:37.958Z,26.95
2023-02-16T03:18:26.753Z,27.23
2023-02-16T03:21:15.250Z,26.88
2023-02-16T03:24:01.679Z,29.90
2023-02-16T03:26:49.029Z,26.88
2023-02-16T03:29:18.868Z,28.20
2023-02-16T03:31:49.044Z,27.92
2023-02-16T03:34:20.385Z,26.63
2023-02-16T03:36:50.468Z,27.25
2023-02-16T03:39:20.886Z,28.45
2023-02-16T03:41:51.010Z,26.08
2023-02-16T03:44:24.672Z,27.27
2023-02-16T03:46:54.463Z,25.80
2023-02-16T03:49:22.710Z,27.10
2023-02-16T03:51:53.170Z,29.75
2023-02-16T03:54:21.673Z,25.98
2023-02-16T03:56:49.893Z,26.92
2023-02-16T03:59:20.949Z,27.13
2023-02-16T04:01:49.374Z,25.95
2023-02-16T04:04:19.044Z,26.25
2023-02-16T04:06:47.228Z,27.35
2023-02-16T04:09:15.869Z,26.58
2023-02-16T04:12:06.191Z,26.42
2023-02-16T04:14:34.619Z,26.58
2023-02-16T04:17:07.356Z,26.92
2023-02-16T04:19:41.782Z,27.00
2023-02-16T04:22:14.906Z,27.27
2023-02-16T04:24:43.358Z,27.40
2023-02-16T04:27:14.643Z,25.27
2023-02-16T04:29:42.962Z,28.25
2023-02-16T04:32:11.450Z,28.52
2023-02-16T04:34:41.160Z,27.27
2023-02-16T04:37:09.394Z,28.10
2023-02-16T04:39:37.955Z,28.25
2023-02-16T04:42:06.296Z,28.00
2023-02-16T04:44:36.926Z,28.17
2023-02-16T04:47:05.212Z,27.73
2023-02-16T04:49:33.408Z,27.00
2023-02-16T04:52:05.352Z,29.02
2023-02-16T04:54:34.243Z,28.52
2023-02-16T04:57:02.769Z,28.10
2023-02-16T04:59:31.222Z,28.65
2023-02-16T05:02:01.798Z,28.10
2023-02-16T05:04:30.160Z,27.95
2023-02-16T05:07:00.765Z,28.67
2023-02-16T05:09:30.491Z,26.50
2023-02-16T05:12:16.368Z,28.05
2023-02-16T05:14:47.066Z,29.13
2023-02-16T05:17:16.793Z,29.63
2023-02-16T05:19:48.291Z,29.33
2023-02-16T05:22:16.978Z,27.90
2023-02-16T05:24:49.505Z,29.75
2023-02-16T05:27:18.840Z,27.63
2023-02-16T05:29:49.369Z,28.05
2023-02-16T05:32:17.886Z,28.92
2023-02-16T05:34:53.418Z,28.40
2023-02-16T05:37:21.866Z,28.88
2023-02-16T05:39:52.802Z,29.92
2023-02-16T05:42:23.465Z,29.73
2023-02-16T05:44:51.877Z,30.23
2023-02-16T05:47:20.101Z,28.70
2023-02-16T05:49:50.731Z,28.95
2023-02-16T05:52:21.396Z,28.65
2023-02-16T05:54:49.668Z,28.65
2023-02-16T05:57:19.310Z,27.95
2023-02-16T05:59:47.616Z,27.63
2023-02-16T06:02:25.149Z,28.48
2023-02-16T06:04:53.616Z,27.85
2023-02-16T06:07:21.840Z,29.98
2023-02-16T06:09:50.227Z,29.45
2023-02-16T06:12:19.925Z,28.40
2023-02-16T06:14:48.232Z,27.08
2023-02-16T06:17:16.764Z,28.40
2023-02-16T06:19:45.248Z,28.40
2023-02-16T06:22:13.679Z,29.52
2023-02-16T06:24:42.115Z,28.58
2023-02-16T06:27:10.565Z,30.10
2023-02-16T06:29:40.134Z,26.92
2023-02-16T06:32:08.630Z,28.08
2023-02-16T06:34:36.987Z,27.80
2023-02-16T06:37:05.312Z,29.55
2023-02-16T06:39:33.727Z,27.40
2023-02-16T06:42:01.959Z,28.55
2023-02-16T06:44:30.388Z,29.25
2023-02-16T06:47:00.138Z,28.83
2023-02-16T06:49:28.448Z,28.90
2023-02-16T06:51:56.825Z,27.52
2023-02-16T06:54:25.227Z,28.95
2023-02-16T06:56:53.559Z,29.70
2023-02-16T06:59:21.809Z,29.25
2023-02-16T07:01:52.484Z,28.40
2023-02-16T07:04:22.507Z,28.98
2023-02-16T07:06:50.896Z,30.88
2023-02-16T07:09:19.282Z,28.58
2023-02-16T07:11:47.703Z,28.73
2023-02-16T07:14:16.754Z,30.40
2023-02-16T07:16:45.217Z,29.98
2023-02-16T07:19:15.892Z,29.10
2023-02-16T07:21:48.057Z,29.67
2023-02-16T07:24:16.932Z,29.25
2023-02-16T07:26:46.130Z,27.77
2023-02-16T07:29:14.943Z,28.10
2023-02-16T07:31:43.280Z,30.10
2023-02-16T07:34:12.027Z,29.45
2023-02-16T07:36:42.560Z,28.33
2023-02-16T07:39:12.169Z,28.40
2023-02-16T07:41:40.626Z,29.20
2023-02-16T07:44:12.163Z,27.33
2023-02-16T07:46:40.430Z,30.02
2023-02-16T07:49:08.739Z,28.90
2023-02-16T07:51:37.083Z,30.38
2023-02-16T07:54:05.543Z,29.25
2023-02-16T07:56:35.578Z,27.83
2023-02-16T07:59:04.198Z,29.65
2023-02-16T08:01:35.381Z,27.75
2023-02-16T08:04:08.310Z,28.20
2023-02-16T08:06:41.014Z,27.95
2023-02-16T08:09:09.585Z,27.98
2023-02-16T08:11:48.507Z,29.58
2023-02-16T08:14:24.217Z,29.35
2023-02-16T08:16:55.479Z,29.42
2023-02-16T08:19:30.013Z,27.95
2023-02-16T08:21:59.674Z,28.38
2023-02-16T08:24:30.783Z,28.92
2023-02-16T08:27:00.449Z,28.25
2023-02-16T08:29:30.429Z,28.30
2023-02-16T08:31:58.904Z,28.50
2023-02-16T08:34:27.377Z,28.67
2023-02-16T08:36:57.032Z,29.42
2023-02-16T08:39:31.371Z,29.05
2023-02-16T08:42:01.517Z,30.13
2023-02-16T08:44:30.243Z,28.38
2023-02-16T08:47:07.068Z,28.10
2023-02-16T08:49:39.221Z,28.15
2023-02-16T08:52:07.994Z,30.02
2023-02-16T08:54:36.336Z,29.35
2023-02-16T08:57:05.965Z,28.98
2023-02-16T08:59:34.872Z,29.48
2023-02-16T09:02:03.966Z,31.52
2023-02-16T09:04:32.289Z,30.05
2023-02-16T09:07:03.092Z,29.80
2023-02-16T09:09:31.564Z,29.33
2023-02-16T09:11:59.795Z,27.85
2023-02-16T09:14:29.459Z,30.17
2023-02-16T09:16:58.150Z,31.27
2023-02-16T09:19:31.042Z,30.20
2023-02-16T09:21:59.611Z,30.45
2023-02-16T09:24:27.957Z,28.77
2023-02-16T09:26:58.533Z,32.00
2023-02-16T09:29:29.166Z,30.35
2023-02-16T09:31:58.819Z,29.98
2023-02-16T09:34:27.927Z,29.42
2023-02-16T09:37:01.027Z,31.33
2023-02-16T09:39:37.005Z,29.38
2023-02-16T09:42:13.569Z,29.80
2023-02-16T09:44:48.302Z,30.98
2023-02-16T09:47:22.310Z,29.02
2023-02-16T09:49:51.255Z,28.15
2023-02-16T09:52:21.735Z,27.75
2023-02-16T09:54:54.593Z,26.73
2023-02-16T09:57:29.349Z,29.38
2023-02-16T10:00:04.377Z,31.45
2023-02-16T10:02:45.718Z,29.77
2023-02-16T10:05:18.420Z,31.25
2023-02-16T10:07:51.548Z,31.42
2023-02-16T10:10:24.853Z,28.77
2023-02-16T10:12:57.707Z,28.98
2023-02-16T10:15:29.336Z,29.20
2023-02-16T10:18:00.380Z,29.70
2023-02-16T10:20:30.617Z,29.67
2023-02-16T10:23:01.147Z,28.08
2023-02-16T10:25:38.480Z,28.73
2023-02-16T10:28:12.528Z,28.33
2023-02-16T10:30:47.739Z,27.40
2023-02-16T10:33:18.958Z,29.60
2023-02-16T10:35:48.016Z,29.48
2023-02-16T10:38:25.415Z,31.25
2023-02-16T10:40:57.132Z,29.75
2023-02-16T10:43:27.585Z,30.05
2023-02-16T10:45:59.010Z,29.00
2023-02-16T10:48:28.852Z,31.55
2023-02-16T10:50:58.906Z,27.00
2023-02-16T10:53:36.002Z,30.45
2023-02-16T10:56:15.290Z,27.63
2023-02-16T10:58:43.848Z,28.67
2023-02-16T11:01:18.809Z,28.63
2023-02-16T11:03:57.444Z,28.88
2023-02-16T11:06:26.872Z,30.65
2023-02-16T11:08:57.119Z,28.25
2023-02-16T11:11:26.383Z,26.67
2023-02-16T11:13:59.721Z,29.67
2023-02-16T11:16:33.107Z,28.05
2023-02-16T11:19:04.926Z,27.15
2023-02-16T11:21:59.752Z,28.50
2023-02-16T11:24:36.385Z,27.65
2023-02-16T11:27:08.121Z,27.00
2023-02-16T11:29:36.442Z,25.75
2023-02-16T11:32:09.348Z,26.45
2023-02-16T11:34:42.396Z,26.05
2023-02-16T11:37:18.094Z,26.90
2023-02-16T11:39:50.945Z,26.70
2023-02-16T11:42:26.258Z,27.52
2023-02-16T11:44:57.057Z,27.83
2023-02-16T11:47:29.599Z,27.92
2023-02-16T11:50:10.525Z,27.17
2023-02-16T11:52:38.996Z,27.60
2023-02-16T11:55:22.473Z,26.20
2023-02-16T11:57:51.873Z,24.92
2023-02-16T12:00:23.757Z,23.92
2023-02-16T12:03:16.398Z,24.45
2023-02-16T12:05:52.918Z,24.70
2023-02-16T12:08:28.596Z,23.23
2023-02-16T12:11:03.287Z,24.65
2023-02-16T12:13:37.600Z,21.50
2023-02-16T12:16:10.058Z,24.98
2023-02-16T12:18:45.938Z,21.25
2023-02-16T12:21:23.802Z,23.50
2023-02-16T12:23:56.877Z,23.92
2023-02-16T12:26:34.184Z,24.48
2023-02-16T12:29:11.109Z,23.25
2023-02-16T12:31:48.867Z,21.92
2023-02-16T12:34:23.413Z,25.55
2023-02-16T12:37:02.073Z,23.17
2023-02-16T12:39:33.164Z,19.10
2023-02-16T12:42:18.550Z,18.88
2023-02-16T12:44:48.505Z,17.77
2023-02-16T12:47:21.142Z,18.55
2023-02-16T12:49:54.055Z,16.77
2023-02-16T12:52:35.431Z,16.88
2023-02-16T12:55:11.142Z,16.98
2023-02-16T12:57:43.741Z,18.30
2023-02-16T13:00:18.781Z,18.38
2023-02-16T13:02:50.783Z,17.98
2023-02-16T13:05:22.712Z,18.05
2023-02-16T13:07:54.665Z,18.38
2023-02-16T13:10:26.308Z,18.52
2023-02-16T13:12:56.878Z,17.98
2023-02-16T13:15:29.024Z,16.83
2023-02-16T13:18:03.559Z,18.38
2023-02-16T13:20:32.061Z,17.73
2023-02-16T13:23:13.684Z,15.43
2023-02-16T13:25:52.655Z,16.35
2023-02-16T13:28:42.743Z,15.30
2023-02-16T13:31:18.545Z,13.82
2023-02-16T13:33:53.152Z,12.88
2023-02-16T13:36:30.884Z,12.80
2023-02-16T13:39:15.689Z,11.63
2023-02-16T13:41:53.447Z,10.90
2023-02-16T13:44:22.983Z,11.70
2023-02-16T13:46:53.867Z,11.23
2023-02-16T13:49:36.065Z,10.40
2023-02-16T13:52:04.883Z,11.82
2023-02-16T13:54:36.443Z,10.60
2023-02-16T13:57:08.490Z,11.02
2023-02-16T14:00:00.249Z,10.90
2023-02-16T14:02:51.973Z,11.07
2023-02-16T14:05:25.199Z,12.23
2023-02-16T14:08:11.827Z,11.98
2023-02-16T14:11:00.394Z,11.70
2023-02-16T14:13:32.104Z,10.98
2023-02-16T14:16:05.230Z,12.00
2023-02-16T14:18:37.421Z,11.82
2023-02-16T14:21:09.252Z,13.00
2023-02-16T14:23:37.543Z,13.95
2023-02-16T14:26:10.178Z,13.10
2023-02-16T14:29:03.294Z,13.75
2023-02-16T14:31:32.887Z,12.88
2023-02-16T14:34:04.386Z,12.90
2023-02-16T14:36:37.884Z,13.95
2023-02-16T14:39:06.409Z,13.05
2023-02-16T14:41:36.860Z,12.70
2023-02-16T14:44:27.358Z,13.85
2023-02-16T14:47:01.808Z,12.73
2023-02-16T14:49:40.895Z,14.07
2023-02-16T14:52:27.445Z,14.15
2023-02-16T14:55:09.648Z,13.70
2023-02-16T14:57:42.332Z,13.80
2023-02-16T15:00:19.490Z,15.75
2023-02-16T15:03:07.000Z,14.43
2023-02-16T15:05:37.822Z,14.38
2023-02-16T15:08:12.912Z,13.88
2023-02-16T15:10:46.331Z,14.70
2023-02-16T15:13:20.681Z,14.70
2023-02-16T15:15:56.010Z,14.23
2023-02-16T15:18:25.948Z,15.48
2023-02-16T15:20:55.850Z,15.13
2023-02-16T15:23:25.417Z,14.98
2023-02-16T15:25:55.412Z,15.23
2023-02-16T15:28:27.812Z,14.98
2023-02-16T15:30:58.586Z,14.77
2023-02-16T15:33:45.045Z,14.32
2023-02-16T15:36:17.955Z,14.38
2023-02-16T15:38:56.812Z,15.48
2023-02-16T15:41:27.776Z,14.68
2023-02-16T15:43:56.289Z,14.88
2023-02-16T15:46:29.981Z,13.07
2023-02-16T15:48:58.679Z,14.43
2023-02-16T15:51:31.561Z,13.85
2023-02-16T15:54:01.205Z,13.15
2023-02-16T15:56:32.347Z,13.50
2023-02-16T15:59:04.195Z,13.20
2023-02-16T16:01:35.119Z,13.82
2023-02-16T16:04:04.658Z,13.23
2023-02-16T16:06:37.312Z,12.57
2023-02-16T16:09:08.549Z,14.45
2023-02-16T16:11:38.265Z,14.60
2023-02-16T16:14:07.321Z,14.45
2023-02-16T16:16:38.409Z,13.60
2023-02-16T16:19:12.863Z,14.02
2023-02-16T16:21:51.356Z,13.90
2023-02-16T16:24:32.579Z,14.13
2023-02-16T16:27:04.347Z,13.55
2023-02-16T16:29:37.291Z,15.05
2023-02-16T16:32:12.536Z,14.50
2023-02-16T16:34:43.953Z,14.95
2023-02-16T16:37:23.554Z,15.10
2023-02-16T16:40:00.985Z,14.73
2023-02-16T16:42:29.759Z,16.17
2023-02-16T16:45:07.643Z,15.90
2023-02-16T16:47:38.760Z,15.38
2023-02-16T16:50:09.309Z,15.43
2023-02-16T16:52:39.132Z,15.73
2023-02-16T16:55:24.867Z,16.85
2023-02-16T16:57:56.299Z,17.25
2023-02-16T17:00:25.728Z,17.05
2023-02-16T17:02:55.354Z,16.70
2023-02-16T17:05:25.946Z,18.15
2023-02-16T17:07:54.356Z,16.10
2023-02-16T17:10:23.362Z,16.98
2023-02-16T17:12:54.096Z,15.35
2023-02-16T17:15:36.485Z,16.20
2023-02-16T17:18:08.705Z,14.57
2023-02-16T17:20:37.120Z,15.90
2023-02-16T17:23:10.028Z,16.05
2023-02-16T17:25:38.526Z,16.02
2023-02-16T17:28:06.948Z,14.65
2023-02-16T17:30:37.962Z,14.52
2023-02-16T17:33:08.205Z,13.60
2023-02-16T17:35:37.212Z,13.63
2023-02-16T17:38:08.766Z,15.88
2023-02-16T17:40:41.364Z,14.18
2023-02-16T17:43:16.566Z,15.20
2023-02-16T17:45:45.602Z,13.30
2023-02-16T17:48:26.490Z,14.38
2023-02-16T17:50:56.471Z,14.93
2023-02-16T17:53:26.051Z,14.55
2023-02-16T17:55:55.737Z,13.52
2023-02-16T17:58:25.096Z,15.02
2023-02-16T18:00:56.098Z,12.45
2023-02-16T18:03:26.342Z,14.32
2023-02-16T18:05:54.855Z,14.30
2023-02-16T18:08:23.123Z,12.93
2023-02-16T18:10:53.462Z,14.52
2023-02-16T18:13:22.160Z,13.18
2023-02-16T18:15:50.938Z,13.45
2023-02-16T18:18:20.019Z,14.43
2023-02-16T18:20:49.638Z,12.35
2023-02-16T18:23:17.988Z,12.23
2023-02-16T18:25:47.107Z,11.52
2023-02-16T18:28:18.289Z,12.35
2023-02-16T18:30:47.743Z,11.48
2023-02-16T18:33:21.182Z,10.63
2023-02-16T18:35:52.774Z,10.27
2023-02-16T18:38:22.095Z,10.00
2023-02-16T18:40:53.538Z,10.57
2023-02-16T18:43:22.176Z,10.68
2023-02-16T18:45:59.911Z,9.48
2023-02-16T18:48:30.524Z,9.52
2023-02-16T18:51:03.238Z,9.30
2023-02-16T18:53:31.522Z,8.45
2023-02-16T18:56:02.332Z,9.30
2023-02-16T18:58:30.771Z,8.60
2023-02-16T19:00:59.005Z,9.23
2023-02-16T19:03:30.411Z,9.93
2023-02-16T19:06:00.326Z,8.07
2023-02-16T19:08:28.642Z,8.23
2023-02-16T19:10:56.877Z,8.32
2023-02-16T19:13:31.664Z,8.02
2023-02-16T19:16:00.092Z,7.38
2023-02-16T19:18:33.210Z,7.60
2023-02-16T19:21:04.925Z,6.30
2023-02-16T19:23:33.210Z,6.63
2023-02-16T19:26:01.597Z,6.82
2023-02-16T19:28:30.228Z,5.88
2023-02-16T19:31:01.695Z,6.50
2023-02-16T19:33:30.148Z,6.32
2023-02-16T19:36:03.863Z,5.78
2023-02-16T19:38:34.778Z,6.03
2023-02-16T19:41:03.341Z,6.10
2023-02-16T19:43:33.964Z,5.32
2023-02-16T19:46:03.985Z,5.28
2023-02-16T19:48:32.535Z,5.47
2023-02-16T19:51:01.352Z,4.82
2023-02-16T19:53:31.487Z,4.90
2023-02-16T19:56:02.287Z,4.43
2023-02-16T19:58:30.475Z,4.82
2023-02-16T20:01:03.356Z,4.63
2023-02-16T20:03:34.439Z,4.50
2023-02-16T20:06:03.317Z,4.63
2023-02-16T20:08:35.520Z,4.88
2023-02-16T20:11:10.018Z,4.10
2023-02-16T20:13:38.937Z,4.53
2023-02-16T20:16:08.653Z,4.03
2023-02-16T20:18:37.513Z,4.72
2023-02-16T20:21:06.729Z,4.40
2023-02-16T20:23:36.749Z,4.15
2023-02-16T20:26:09.304Z,3.83
2023-02-16T20:28:42.538Z,4.50
2023-02-16T20:31:16.482Z,3.95
2023-02-16T20:33:44.982Z,4.72
2023-02-16T20:36:13.641Z,4.22
2023-02-16T20:38:43.770Z,4.90
2023-02-16T20:41:14.595Z,5.72
2023-02-16T20:43:45.635Z,5.63
2023-02-16T20:46:14.468Z,5.57
2023-02-16T20:48:42.902Z,6.10
2023-02-16T20:51:16.185Z,6.32
2023-02-16T20:53:45.939Z,6.57
2023-02-16T20:56:15.755Z,5.10
2023-02-16T20:58:45.055Z,6.55
2023-02-16T21:01:14.861Z,5.70
2023-02-16T21:03:43.701Z,5.95
2023-02-16T21:06:11.999Z,6.63
2023-02-16T21:08:40.381Z,6.18
2023-02-16T21:11:14.698Z,5.95
2023-02-16T21:13:45.890Z,7.10
2023-02-16T21:16:14.909Z,6.95
2023-02-16T21:18:45.814Z,6.75
2023-02-16T21:21:15.610Z,7.35
2023-02-16T21:23:46.706Z,6.47
2023-02-16T21:26:19.267Z,7.00
2023-02-16T21:28:47.848Z,6.55
2023-02-16T21:31:19.764Z,6.55
2023-02-16T21:33:48.374Z,6.63
2023-02-16T21:36:17.496Z,7.13
2023-02-16T21:38:48.955Z,6.30
2023-02-16T21:41:25.843Z,8.23
2023-02-16T21:43:57.052Z,7.88
2023-02-16T21:46:28.081Z,7.03
2023-02-16T21:48:57.317Z,7.78
2023-02-16T21:51:28.377Z,7.65
2023-02-16T21:54:01.310Z,8.93
2023-02-16T21:56:32.034Z,8.43
2023-02-16T21:59:00.466Z,9.02
2023-02-16T22:01:29.824Z,9.40
2023-02-16T22:04:03.485Z,9.27
2023-02-16T22:06:33.323Z,10.18
2023-02-16T22:09:03.944Z,10.63
2023-02-16T22:11:33.786Z,9.70
2023-02-16T22:14:05.251Z,9.18
2023-02-16T22:16:34.176Z,10.05
2023-02-16T22:19:07.262Z,9.63
2023-02-16T22:21:36.467Z,10.00
2023-02-16T22:24:05.099Z,9.60
2023-02-16T22:26:35.980Z,9.55
2023-02-16T22:29:05.247Z,11.45
2023-02-16T22:31:33.619Z,9.73
2023-02-16T22:34:03.058Z,8.75
2023-02-16T22:36:34.242Z,9.15
2023-02-16T22:39:02.521Z,8.82
2023-02-16T22:41:37.808Z,8.68
2023-02-16T22:44:07.480Z,8.68
2023-02-16T22:46:35.771Z,8.77
2023-02-16T22:49:04.073Z,7.78
2023-02-16T22:51:32.601Z,8.18
2023-02-16T22:54:01.261Z,7.63
2023-02-16T22:56:30.106Z,8.48
2023-02-16T22:59:01.070Z,9.65
2023-02-16T23:01:31.987Z,10.20
2023-02-16T23:04:01.556Z,10.70
2023-02-16T23:06:31.086Z,11.48
2023-02-16T23:09:00.495Z,11.80
2023-02-16T23:11:29.322Z,11.27
2023-02-16T23:13:57.668Z,11.90
2023-02-16T23:16:26.865Z,11.88
2023-02-16T23:19:07.101Z,11.52
2023-02-16T23:21:37.542Z,11.25
2023-02-16T23:24:05.946Z,12.30
2023-02-16T23:26:34.209Z,10.75
2023-02-16T23:29:10.126Z,11.95
2023-02-16T23:31:39.658Z,10.85
2023-02-16T23:34:14.823Z,11.73
2023-02-16T23:36:43.753Z,11.05
2023-02-16T23:39:15.699Z,10.73
2023-02-16T23:41:44.083Z,9.88
2023-02-16T23:44:14.524Z,9.55
2023-02-16T23:46:45.135Z,9.57
2023-02-16T23:49:17.503Z,10.18
2023-02-16T23:51:45.874Z,9.73
2023-02-16T23:54:14.726Z,9.02
2023-02-16T23:56:42.970Z,9.02
2023-02-16T23:59:11.169Z,9.70
